createdAt,value
2022-09-29T00:01:27.679Z,8.17
2022-09-29T00:03:56.226Z,8.16
2022-09-29T00:06:25.152Z,8.22
2022-09-29T00:08:53.733Z,8.17
2022-09-29T00:11:22.429Z,8.19
2022-09-29T00:13:51.794Z,8.17
2022-09-29T00:16:21.822Z,8.22
2022-09-29T00:18:50.370Z,8.23
2022-09-29T00:21:20.634Z,8.20
2022-09-29T00:23:51.694Z,8.22
2022-09-29T00:26:23.953Z,8.28
2022-09-29T00:28:56.866Z,8.32
2022-09-29T00:31:30.338Z,8.30
2022-09-29T00:33:59.858Z,8.27
2022-09-29T00:36:30.220Z,8.27
2022-09-29T00:39:00.551Z,8.18
2022-09-29T00:41:33.902Z,8.22
2022-09-29T00:44:04.794Z,8.23
2022-09-29T00:46:46.383Z,8.30
2022-09-29T00:49:24.910Z,8.38
2022-09-29T00:52:01.212Z,8.26
2022-09-29T00:54:38.293Z,8.28
2022-09-29T00:57:09.708Z,8.28
2022-09-29T00:59:46.522Z,8.27
2022-09-29T01:02:20.361Z,8.24
2022-09-29T01:04:52.902Z,8.26
2022-09-29T01:07:23.561Z,8.33
2022-09-29T01:09:55.132Z,8.29
2022-09-29T01:12:25.109Z,8.26
2022-09-29T01:14:56.268Z,8.23
2022-09-29T01:17:26.947Z,8.24
2022-09-29T01:20:13.101Z,8.22
2022-09-29T01:23:34.259Z,8.15
2022-09-29T01:26:48.899Z,8.08
2022-09-29T01:29:57.474Z,8.04
2022-09-29T01:32:44.141Z,8.02
2022-09-29T01:35:22.909Z,8.00
2022-09-29T01:38:09.367Z,7.95
2022-09-29T01:40:51.626Z,7.92
2022-09-29T01:43:26.696Z,7.94
2022-09-29T01:46:05.944Z,7.95
2022-09-29T01:48:41.926Z,7.96
2022-09-29T01:51:18.349Z,7.90
2022-09-29T01:53:51.458Z,7.97
2022-09-29T01:56:27.752Z,7.91
2022-09-29T01:59:03.645Z,8.00
2022-09-29T02:01:40.496Z,8.04
2022-09-29T02:04:16.418Z,8.05
2022-09-29T02:06:53.083Z,8.06
2022-09-29T02:09:28.886Z,8.05
2022-09-29T02:12:01.950Z,8.03
2022-09-29T02:14:38.624Z,7.99
2022-09-29T02:17:13.512Z,7.98
2022-09-29T02:19:45.112Z,7.97
2022-09-29T02:22:14.954Z,7.94
2022-09-29T02:24:44.096Z,7.89
2022-09-29T02:27:14.415Z,7.91
2022-09-29T02:29:44.153Z,7.91
2022-09-29T02:32:14.260Z,7.90
2022-09-29T02:34:49.830Z,7.93
2022-09-29T02:37:41.682Z,8.27
2022-09-29T02:40:29.659Z,8.45
2022-09-29T02:43:37.011Z,8.46
2022-09-29T02:46:24.351Z,8.44
2022-09-29T02:49:26.306Z,8.37
2022-09-29T02:52:02.811Z,8.18
2022-09-29T02:54:53.224Z,8.19
2022-09-29T02:57:29.858Z,8.49
2022-09-29T03:00:09.826Z,8.56
2022-09-29T03:02:40.009Z,8.99
2022-09-29T03:05:12.660Z,9.72
2022-09-29T03:07:43.471Z,9.06
2022-09-29T03:10:14.830Z,8.71
2022-09-29T03:12:43.685Z,9.24
2022-09-29T03:15:13.266Z,8.86
2022-09-29T03:17:42.359Z,9.27
2022-09-29T03:20:11.547Z,9.22
2022-09-29T03:22:40.284Z,9.66
2022-09-29T03:25:10.608Z,9.45
2022-09-29T03:27:40.064Z,8.79
2022-09-29T03:30:12.960Z,8.63
2022-09-29T03:32:41.518Z,9.26
2022-09-29T03:35:11.692Z,8.66
2022-09-29T03:37:40.249Z,8.57
2022-09-29T03:40:11.910Z,9.01
2022-09-29T03:42:40.640Z,8.73
2022-09-29T03:45:10.191Z,8.65
2022-09-29T03:47:38.738Z,8.73
2022-09-29T03:50:08.817Z,8.85
2022-09-29T03:52:37.572Z,9.61
2022-09-29T03:55:07.176Z,8.69
2022-09-29T03:57:37.623Z,8.60
2022-09-29T04:00:07.252Z,8.24
2022-09-29T04:02:36.952Z,8.34
2022-09-29T04:05:06.676Z,8.19
2022-09-29T04:07:35.395Z,8.22
2022-09-29T04:10:04.556Z,8.19
2022-09-29T04:12:33.101Z,8.16
2022-09-29T04:15:03.007Z,8.18
2022-09-29T04:17:31.917Z,8.02
2022-09-29T04:20:00.724Z,8.03
2022-09-29T04:22:29.271Z,7.99
2022-09-29T04:24:58.394Z,7.96
2022-09-29T04:27:27.033Z,8.02
2022-09-29T04:29:55.535Z,7.91
2022-09-29T04:32:26.027Z,7.90
2022-09-29T04:34:54.827Z,7.99
2022-09-29T04:37:23.483Z,7.96
2022-09-29T04:39:53.245Z,7.93
2022-09-29T04:42:22.555Z,7.94
2022-09-29T04:44:51.105Z,7.89
2022-09-29T04:47:19.909Z,8.07
2022-09-29T04:49:49.747Z,8.37
2022-09-29T04:52:18.323Z,8.15
2022-09-29T04:54:47.080Z,7.96
2022-09-29T04:57:15.611Z,8.02
2022-09-29T04:59:44.255Z,8.05
2022-09-29T05:02:13.012Z,8.11
2022-09-29T05:04:41.574Z,8.08
2022-09-29T05:07:11.477Z,8.10
2022-09-29T05:09:40.207Z,8.13
2022-09-29T05:12:08.803Z,8.17
2022-09-29T05:14:37.318Z,8.14
2022-09-29T05:17:06.178Z,8.13
2022-09-29T05:19:34.911Z,8.28
2022-09-29T05:22:03.893Z,8.48
2022-09-29T05:24:33.994Z,8.37
2022-09-29T05:27:02.534Z,8.24
2022-09-29T05:29:31.122Z,8.37
2022-09-29T05:32:00.003Z,8.40
2022-09-29T05:34:28.582Z,8.53
2022-09-29T05:36:57.123Z,8.42
2022-09-29T05:39:26.045Z,8.35
2022-09-29T05:41:59.529Z,8.67
2022-09-29T05:44:28.667Z,8.46
2022-09-29T05:46:57.232Z,8.48
2022-09-29T05:49:25.782Z,8.58
2022-09-29T05:51:54.658Z,8.47
2022-09-29T05:54:24.070Z,8.82
2022-09-29T05:56:52.571Z,8.60
2022-09-29T05:59:22.890Z,9.35
2022-09-29T06:01:51.660Z,9.12
2022-09-29T06:04:20.299Z,8.79
2022-09-29T06:06:49.147Z,9.44
2022-09-29T06:09:18.366Z,8.76
2022-09-29T06:11:46.942Z,9.04
2022-09-29T06:14:16.017Z,9.11
2022-09-29T06:16:46.038Z,9.68
2022-09-29T06:19:14.837Z,9.32
2022-09-29T06:21:43.597Z,9.44
2022-09-29T06:24:13.022Z,8.96
2022-09-29T06:26:41.710Z,9.39
2022-09-29T06:29:10.726Z,9.51
2022-09-29T06:31:39.898Z,9.49
2022-09-29T06:34:11.350Z,9.35
2022-09-29T06:37:02.498Z,9.78
2022-09-29T06:39:31.891Z,10.67
2022-09-29T06:42:01.172Z,10.66
2022-09-29T06:44:30.730Z,9.71
2022-09-29T06:47:00.992Z,10.63
2022-09-29T06:49:31.294Z,9.47
2022-09-29T06:52:00.865Z,10.09
2022-09-29T06:54:31.042Z,10.09
2022-09-29T06:57:00.959Z,9.70
2022-09-29T06:59:29.522Z,10.35
2022-09-29T07:01:58.972Z,10.53
2022-09-29T07:04:27.708Z,11.22
2022-09-29T07:06:57.757Z,10.04
2022-09-29T07:09:26.638Z,10.41
2022-09-29T07:11:55.206Z,9.64
2022-09-29T07:18:56.059Z,10.23
2022-09-29T07:21:24.582Z,10.66
2022-09-29T07:23:57.623Z,10.24
2022-09-29T07:26:29.348Z,9.82
2022-09-29T07:28:58.334Z,10.21
2022-09-29T07:31:26.949Z,10.51
2022-09-29T07:33:57.584Z,10.26
2022-09-29T07:36:26.137Z,10.85
2022-09-29T07:43:28.584Z,10.30
2022-09-29T07:45:57.185Z,10.07
2022-09-29T07:48:30.559Z,9.97
2022-09-29T07:51:05.554Z,10.13
2022-09-29T07:53:36.332Z,10.10
2022-09-29T07:56:07.627Z,10.05
2022-09-29T07:58:39.329Z,10.62
2022-09-29T08:01:12.745Z,10.11
2022-09-29T08:03:43.411Z,9.55
2022-09-29T08:06:12.946Z,10.21
2022-09-29T08:08:51.228Z,9.92
2022-09-29T08:11:30.971Z,10.93
2022-09-29T08:14:03.259Z,10.54
2022-09-29T08:16:32.831Z,10.08
2022-09-29T08:19:02.532Z,11.63
2022-09-29T08:21:31.992Z,10.52
2022-09-29T08:24:02.459Z,10.29
2022-09-29T08:26:42.709Z,10.95
2022-09-29T08:29:17.065Z,11.16
2022-09-29T08:31:47.545Z,10.71
2022-09-29T08:34:17.659Z,11.19
2022-09-29T08:41:51.013Z,11.75
2022-09-29T08:44:38.301Z,13.50
2022-09-29T08:47:21.803Z,12.94
2022-09-29T08:49:56.780Z,11.52
2022-09-29T08:52:38.327Z,11.95
2022-09-29T08:55:29.151Z,13.09
2022-09-29T08:58:02.195Z,12.00
2022-09-29T09:00:42.254Z,12.13
2022-09-29T09:03:39.614Z,12.58
2022-09-29T09:06:26.385Z,11.73
2022-09-29T09:09:23.183Z,11.74
2022-09-29T09:12:34.826Z,12.75
2022-09-29T09:15:27.674Z,12.66
2022-09-29T09:18:25.904Z,12.32
2022-09-29T09:21:05.587Z,12.64
2022-09-29T09:28:15.997Z,12.24
2022-09-29T09:30:52.766Z,12.17
2022-09-29T09:33:32.627Z,12.72
2022-09-29T09:36:09.186Z,12.08
2022-09-29T09:38:54.895Z,11.44
2022-09-29T09:46:02.187Z,13.12
2022-09-29T09:48:39.896Z,12.03
2022-09-29T09:51:34.510Z,11.68
2022-09-29T09:54:12.971Z,12.42
2022-09-29T09:57:14.459Z,11.81
2022-09-29T10:00:00.446Z,12.07
2022-09-29T10:02:32.841Z,13.31
2022-09-29T10:05:07.369Z,12.65
2022-09-29T10:07:38.437Z,12.53
2022-09-29T10:10:17.889Z,12.53
2022-09-29T10:12:47.309Z,12.36
2022-09-29T10:15:24.578Z,12.66
2022-09-29T10:18:07.633Z,12.87
2022-09-29T10:25:19.042Z,12.51
2022-09-29T10:27:54.015Z,12.98
2022-09-29T10:30:32.599Z,12.68
2022-09-29T10:33:09.015Z,11.76
2022-09-29T10:35:44.749Z,11.98
2022-09-29T10:38:25.380Z,11.11
2022-09-29T10:41:02.258Z,11.41
2022-09-29T10:43:38.015Z,11.72
2022-09-29T10:46:38.105Z,11.40
2022-09-29T10:49:15.999Z,11.35
2022-09-29T10:51:56.085Z,11.53
2022-09-29T10:54:27.397Z,11.29
2022-09-29T10:56:59.617Z,11.28
2022-09-29T10:59:29.548Z,11.58
2022-09-29T11:02:03.162Z,11.52
2022-09-29T11:04:37.161Z,11.57
2022-09-29T11:07:13.508Z,13.19
2022-09-29T11:09:44.560Z,13.21
2022-09-29T11:12:33.555Z,12.96
2022-09-29T11:15:04.229Z,12.87
2022-09-29T11:17:39.638Z,13.37
2022-09-29T11:20:16.656Z,12.77
2022-09-29T11:23:20.249Z,13.01
2022-09-29T11:26:10.410Z,12.09
2022-09-29T11:29:15.085Z,12.95
2022-09-29T11:32:05.843Z,13.35
2022-09-29T11:34:56.877Z,12.93
2022-09-29T11:37:43.972Z,13.76
2022-09-29T11:40:20.070Z,13.07
2022-09-29T11:43:11.085Z,12.82
2022-09-29T11:45:57.016Z,13.44
2022-09-29T11:49:09.691Z,13.86
2022-09-29T11:52:02.982Z,13.75
2022-09-29T11:55:02.330Z,13.19
2022-09-29T11:57:52.143Z,12.44
2022-09-29T12:00:23.646Z,12.95
2022-09-29T12:03:28.905Z,14.27
2022-09-29T12:07:36.895Z,14.16
2022-09-29T12:10:34.084Z,12.98
2022-09-29T12:13:19.661Z,13.75
2022-09-29T12:15:57.655Z,13.69
2022-09-29T12:18:39.241Z,14.07
2022-09-29T12:21:15.545Z,13.12
2022-09-29T12:23:49.327Z,13.21
2022-09-29T12:26:23.117Z,13.99
2022-09-29T12:28:59.887Z,13.20
2022-09-29T12:31:35.535Z,13.28
2022-09-29T12:34:14.558Z,12.10
2022-09-29T12:36:53.687Z,11.90
2022-09-29T12:39:45.031Z,12.40
2022-09-29T12:42:34.189Z,12.96
2022-09-29T12:45:11.256Z,11.96
2022-09-29T12:47:58.163Z,11.91
2022-09-29T12:50:34.463Z,13.22
2022-09-29T12:53:16.281Z,12.50
2022-09-29T12:55:53.938Z,13.14
2022-09-29T12:58:32.948Z,14.08
2022-09-29T13:01:23.084Z,13.68
2022-09-29T13:08:58.893Z,13.84
2022-09-29T13:12:00.456Z,14.39
2022-09-29T13:15:09.356Z,13.68
2022-09-29T13:18:01.659Z,14.24
2022-09-29T13:21:19.217Z,13.97
2022-09-29T13:24:16.414Z,13.04
2022-09-29T13:27:26.400Z,13.95
2022-09-29T13:30:03.663Z,13.67
2022-09-29T13:32:36.102Z,13.12
2022-09-29T13:35:12.713Z,12.44
2022-09-29T13:37:49.508Z,13.36
2022-09-29T13:40:27.314Z,12.87
2022-09-29T13:42:57.959Z,12.77
2022-09-29T13:45:47.891Z,12.44
2022-09-29T13:48:49.896Z,12.92
2022-09-29T13:51:45.831Z,12.90
2022-09-29T13:54:33.957Z,12.06
2022-09-29T13:57:26.293Z,13.52
2022-09-29T14:00:27.659Z,12.97
2022-09-29T14:03:29.963Z,12.48
2022-09-29T14:06:39.151Z,12.67
2022-09-29T14:13:51.047Z,12.98
2022-09-29T14:16:37.426Z,12.94
2022-09-29T14:19:17.635Z,12.68
2022-09-29T14:21:51.738Z,13.09
2022-09-29T14:24:47.333Z,12.06
2022-09-29T14:27:31.834Z,12.19
2022-09-29T14:30:19.920Z,11.85
2022-09-29T14:32:56.770Z,11.46
2022-09-29T14:35:31.706Z,12.14
2022-09-29T14:38:07.954Z,12.89
2022-09-29T14:40:36.807Z,13.52
2022-09-29T14:43:16.416Z,12.84
2022-09-29T14:46:24.125Z,12.49
2022-09-29T14:49:43.480Z,12.51
2022-09-29T14:57:00.569Z,11.77
2022-09-29T14:59:53.654Z,12.54
2022-09-29T15:02:28.989Z,12.82
2022-09-29T15:04:58.806Z,11.93
2022-09-29T15:07:29.533Z,11.39
2022-09-29T15:10:00.529Z,11.15
2022-09-29T15:12:32.558Z,11.04
2022-09-29T15:15:02.323Z,10.83
2022-09-29T15:17:54.448Z,10.71
2022-09-29T15:20:33.094Z,10.65
2022-09-29T15:23:43.156Z,10.56
2022-09-29T15:26:15.721Z,10.48
2022-09-29T15:28:47.068Z,10.50
2022-09-29T15:31:29.002Z,10.43
2022-09-29T15:33:59.415Z,10.41
2022-09-29T15:36:34.745Z,10.35
2022-09-29T15:39:08.025Z,10.31
2022-09-29T15:41:37.173Z,10.47
2022-09-29T15:44:18.533Z,10.29
2022-09-29T15:46:52.180Z,10.18
2022-09-29T15:49:23.799Z,10.10
2022-09-29T15:52:01.571Z,10.07
2022-09-29T15:54:34.470Z,10.00
2022-09-29T15:57:21.134Z,9.98
2022-09-29T15:59:54.173Z,9.91
2022-09-29T16:02:30.914Z,9.85
2022-09-29T16:05:07.097Z,9.83
2022-09-29T16:07:40.658Z,9.67
2022-09-29T16:10:17.809Z,9.60
2022-09-29T16:12:54.740Z,9.53
2022-09-29T16:15:31.438Z,9.46
2022-09-29T16:18:04.651Z,9.57
2022-09-29T16:20:36.839Z,9.47
2022-09-29T16:23:10.696Z,9.26
2022-09-29T16:25:39.552Z,9.21
2022-09-29T16:28:26.707Z,9.28
2022-09-29T16:31:05.579Z,9.11
2022-09-29T16:33:36.704Z,8.99
2022-09-29T16:36:20.080Z,8.87
2022-09-29T16:38:51.573Z,8.81
2022-09-29T16:41:34.343Z,8.84
2022-09-29T16:44:09.311Z,8.85
2022-09-29T16:46:48.156Z,9.11
2022-09-29T16:53:52.844Z,8.66
2022-09-29T16:56:32.319Z,8.65
2022-09-29T16:59:12.439Z,8.60
2022-09-29T17:01:42.126Z,8.51
2022-09-29T17:04:13.097Z,8.41
2022-09-29T17:06:47.360Z,8.29
2022-09-29T17:09:29.024Z,8.30
2022-09-29T17:11:59.849Z,8.30
2022-09-29T17:14:30.913Z,8.23
2022-09-29T17:16:59.788Z,8.22
2022-09-29T17:19:28.436Z,8.19
2022-09-29T17:21:59.381Z,8.26
2022-09-29T17:24:30.330Z,8.41
2022-09-29T17:27:16.848Z,8.26
2022-09-29T17:29:46.127Z,8.06
2022-09-29T17:32:17.253Z,7.97
2022-09-29T17:34:45.785Z,7.86
2022-09-29T17:37:19.480Z,7.92
2022-09-29T17:39:49.610Z,8.03
2022-09-29T17:42:18.585Z,7.91
2022-09-29T17:44:48.140Z,7.84
2022-09-29T17:47:27.678Z,7.81
2022-09-29T17:49:57.293Z,7.77
2022-09-29T17:52:26.013Z,7.74
2022-09-29T17:54:55.971Z,7.75
2022-09-29T17:57:32.322Z,7.70
2022-09-29T18:00:01.266Z,7.72
2022-09-29T18:02:38.342Z,7.67
2022-09-29T18:05:07.847Z,7.71
2022-09-29T18:07:36.434Z,7.70
2022-09-29T18:10:20.138Z,7.70
2022-09-29T18:12:48.908Z,7.68
2022-09-29T18:15:17.770Z,7.64
2022-09-29T18:17:47.105Z,7.53
2022-09-29T18:20:19.541Z,7.55
2022-09-29T18:22:49.200Z,7.49
2022-09-29T18:29:51.031Z,7.48
2022-09-29T18:32:20.738Z,7.70
2022-09-29T18:34:49.270Z,7.91
2022-09-29T18:37:17.823Z,7.55
2022-09-29T18:39:46.584Z,7.40
2022-09-29T18:42:15.598Z,7.32
2022-09-29T18:44:44.533Z,7.28
2022-09-29T18:47:14.798Z,7.27
2022-09-29T18:49:43.589Z,7.24
2022-09-29T18:52:12.210Z,7.22
2022-09-29T18:54:40.954Z,7.19
2022-09-29T18:57:13.953Z,7.24
2022-09-29T18:59:42.888Z,7.21
2022-09-29T19:02:15.361Z,7.20
2022-09-29T19:04:44.179Z,7.18
2022-09-29T19:07:14.318Z,7.31
2022-09-29T19:09:43.150Z,7.40
2022-09-29T19:12:12.330Z,7.33
2022-09-29T19:14:41.049Z,7.27
2022-09-29T19:17:09.625Z,7.17
2022-09-29T19:19:39.695Z,7.17
2022-09-29T19:22:12.474Z,7.11
2022-09-29T19:24:41.242Z,7.25
2022-09-29T19:27:09.843Z,8.02
2022-09-29T19:29:38.577Z,7.75
2022-09-29T19:32:07.370Z,7.39
2022-09-29T19:34:36.134Z,7.25
2022-09-29T19:37:06.935Z,7.52
2022-09-29T19:39:35.858Z,7.59
2022-09-29T19:42:04.576Z,7.36
2022-09-29T19:44:37.238Z,7.48
2022-09-29T19:47:06.249Z,8.31
2022-09-29T19:49:35.357Z,7.43
2022-09-29T19:52:04.824Z,7.19
2022-09-29T19:54:38.106Z,7.10
2022-09-29T19:57:12.158Z,7.13
2022-09-29T19:59:43.977Z,6.97
2022-09-29T20:02:15.451Z,6.97
2022-09-29T20:04:44.822Z,6.93
2022-09-29T20:07:14.778Z,6.89
2022-09-29T20:14:16.553Z,6.93
2022-09-29T20:16:46.808Z,7.01
2022-09-29T20:19:18.771Z,6.88
2022-09-29T20:21:51.351Z,6.91
2022-09-29T20:24:25.435Z,7.48
2022-09-29T20:26:57.682Z,7.20
2022-09-29T20:29:27.608Z,6.87
2022-09-29T20:31:56.218Z,6.73
2022-09-29T20:34:24.962Z,6.68
2022-09-29T20:36:54.986Z,6.67
2022-09-29T20:39:26.154Z,6.52
2022-09-29T20:41:58.178Z,6.57
2022-09-29T20:44:27.260Z,6.58
2022-09-29T20:46:57.184Z,6.57
2022-09-29T20:49:27.309Z,6.51
2022-09-29T20:51:59.284Z,6.16
2022-09-29T20:54:29.667Z,6.50
2022-09-29T20:56:58.281Z,6.40
2022-09-29T20:59:26.895Z,6.43
2022-09-29T21:01:57.217Z,6.45
2022-09-29T21:04:26.993Z,6.45
2022-09-29T21:06:55.585Z,6.50
2022-09-29T21:09:26.492Z,6.50
2022-09-29T21:11:57.080Z,6.62
2022-09-29T21:14:27.917Z,6.80
2022-09-29T21:16:58.286Z,6.59
2022-09-29T21:19:27.218Z,6.39
2022-09-29T21:21:56.910Z,6.30
2022-09-29T21:24:26.047Z,6.23
2022-09-29T21:26:56.534Z,6.15
2022-09-29T21:29:25.042Z,6.07
2022-09-29T21:31:53.581Z,6.02
2022-09-29T21:34:22.525Z,5.90
2022-09-29T21:36:51.244Z,5.91
2022-09-29T21:39:20.083Z,5.93
2022-09-29T21:41:49.136Z,5.95
2022-09-29T21:44:24.300Z,5.90
2022-09-29T21:46:53.469Z,5.90
2022-09-29T21:49:22.335Z,6.02
2022-09-29T21:51:52.106Z,5.97
2022-09-29T21:54:23.318Z,5.91
2022-09-29T21:56:53.372Z,5.90
2022-09-29T21:59:24.291Z,5.87
2022-09-29T22:01:53.381Z,5.82
2022-09-29T22:04:23.150Z,5.83
2022-09-29T22:06:52.167Z,5.86
2022-09-29T22:09:22.899Z,5.89
2022-09-29T22:11:51.927Z,5.92
2022-09-29T22:14:24.494Z,5.97
2022-09-29T22:16:53.566Z,5.80
2022-09-29T22:19:23.739Z,5.75
2022-09-29T22:21:54.159Z,5.65
2022-09-29T22:24:26.657Z,5.62
2022-09-29T22:26:55.918Z,5.64
2022-09-29T22:29:27.235Z,5.66
2022-09-29T22:31:55.995Z,5.61
2022-09-29T22:34:24.665Z,5.55
2022-09-29T22:36:53.439Z,5.48
2022-09-29T22:39:22.323Z,5.53
2022-09-29T22:41:52.626Z,5.50
2022-09-29T22:44:21.600Z,5.44
2022-09-29T22:46:51.695Z,5.44
2022-09-29T22:49:21.827Z,5.44
2022-09-29T22:51:50.622Z,5.45
2022-09-29T22:54:19.131Z,5.47
2022-09-29T22:56:48.079Z,5.49
2022-09-29T22:59:17.143Z,5.49
2022-09-29T23:01:47.280Z,5.47
2022-09-29T23:04:17.287Z,5.47
2022-09-29T23:06:46.890Z,5.41
2022-09-29T23:09:16.062Z,5.47
2022-09-29T23:11:44.711Z,5.48
2022-09-29T23:14:15.168Z,5.49
2022-09-29T23:16:44.116Z,5.51
2022-09-29T23:19:12.919Z,5.50
2022-09-29T23:21:43.841Z,5.52
2022-09-29T23:24:13.059Z,5.53
2022-09-29T23:26:41.825Z,5.52
2022-09-29T23:29:11.975Z,5.48
2022-09-29T23:31:40.788Z,5.48
2022-09-29T23:34:13.742Z,5.43
2022-09-29T23:36:43.939Z,5.47
2022-09-29T23:39:13.982Z,5.42
2022-09-29T23:41:46.551Z,5.44
2022-09-29T23:44:19.342Z,5.40
2022-09-29T23:46:48.190Z,5.36
2022-09-29T23:49:20.349Z,5.34
2022-09-29T23:51:53.648Z,5.32
2022-09-29T23:54:24.970Z,5.16
2022-09-29T23:56:56.318Z,5.34
2022-09-29T23:59:25.744Z,5.49
